createdAt,value
2019-01-11T00:00:48.453Z,-2.10
2019-01-11T00:03:17.055Z,-2.00
2019-01-11T00:05:45.565Z,-2.10
2019-01-11T00:08:14.068Z,-2.10
2019-01-11T00:10:42.754Z,-2.20
2019-01-11T00:13:11.255Z,-2.20
2019-01-11T00:15:39.693Z,-2.30
2019-01-11T00:18:08.400Z,-2.20
2019-01-11T00:20:36.922Z,-2.00
2019-01-11T00:23:05.501Z,-1.90
2019-01-11T00:25:34.007Z,-1.70
2019-01-11T00:28:02.444Z,-1.60
2019-01-11T00:30:30.865Z,-1.50
2019-01-11T00:32:59.308Z,-1.30
2019-01-11T00:35:27.717Z,-1.20
2019-01-11T00:37:56.163Z,-1.10
2019-01-11T00:40:24.583Z,-1.00
2019-01-11T00:42:53.036Z,-0.90
2019-01-11T00:45:21.488Z,-0.80
2019-01-11T00:47:49.913Z,-0.70
2019-01-11T00:50:20.222Z,-0.60
2019-01-11T00:52:48.738Z,-0.50
2019-01-11T00:55:17.149Z,-0.40
2019-01-11T00:57:45.595Z,-0.30
2019-01-11T01:00:17.099Z,-0.20
2019-01-11T01:02:45.610Z,-0.10
2019-01-11T01:05:14.178Z,-0.10
2019-01-11T01:07:42.666Z,-0.20
2019-01-11T01:10:11.623Z,-0.20
2019-01-11T01:12:40.112Z,-0.20
2019-01-11T01:15:11.433Z,-0.10
2019-01-11T01:17:39.924Z,0.00
2019-01-11T01:20:29.262Z,0.00
2019-01-11T01:22:57.697Z,0.10
2019-01-11T01:25:26.124Z,0.20
2019-01-11T01:27:54.614Z,0.20
2019-01-11T01:30:23.031Z,0.30
2019-01-11T01:32:51.454Z,0.40
2019-01-11T01:35:19.860Z,0.30
2019-01-11T01:37:48.284Z,0.30
2019-01-11T01:40:17.728Z,0.30
2019-01-11T01:42:46.269Z,0.30
2019-01-11T01:45:16.217Z,0.20
2019-01-11T01:47:45.028Z,0.30
2019-01-11T01:50:13.779Z,0.30
2019-01-11T01:52:42.393Z,0.30
2019-01-11T01:55:13.041Z,0.30
2019-01-11T01:57:42.517Z,0.30
2019-01-11T02:00:14.007Z,0.20
2019-01-11T02:02:42.518Z,0.20
2019-01-11T02:05:11.011Z,0.20
2019-01-11T02:07:40.466Z,0.20
2019-01-11T02:10:11.505Z,0.30
2019-01-11T02:12:40.181Z,0.00
2019-01-11T02:15:10.260Z,0.10
2019-01-11T02:17:38.765Z,0.00
2019-01-11T02:20:10.277Z,-0.10
2019-01-11T02:22:38.693Z,-0.20
2019-01-11T02:25:08.770Z,-0.20
2019-01-11T02:27:38.238Z,-0.20
2019-01-11T02:30:15.685Z,-0.10
2019-01-11T02:32:44.108Z,-0.20
2019-01-11T02:35:12.702Z,-0.20
2019-01-11T02:37:43.210Z,-0.30
2019-01-11T02:40:12.904Z,-0.40
2019-01-11T02:42:41.415Z,-0.40
2019-01-11T02:45:12.906Z,-0.50
2019-01-11T02:47:41.340Z,-0.60
2019-01-11T02:50:11.338Z,-0.60
2019-01-11T02:52:39.791Z,-0.60
2019-01-11T02:55:09.365Z,-0.60
2019-01-11T02:57:37.876Z,-0.50
2019-01-11T03:00:12.340Z,-0.60
2019-01-11T03:02:40.773Z,-0.60
2019-01-11T03:05:09.359Z,-0.60
2019-01-11T03:07:37.968Z,-0.60
2019-01-11T03:10:09.502Z,-0.60
2019-01-11T03:12:37.935Z,-0.50
2019-01-11T03:15:27.314Z,-0.60
2019-01-11T03:17:55.736Z,-0.60
2019-01-11T03:20:24.169Z,-0.60
2019-01-11T03:22:52.592Z,-0.60
2019-01-11T03:25:21.016Z,-0.60
2019-01-11T03:27:51.424Z,-0.70
2019-01-11T03:30:21.867Z,-0.60
2019-01-11T03:32:50.312Z,-0.60
2019-01-11T03:35:19.251Z,-0.60
2019-01-11T03:37:48.815Z,-0.70
2019-01-11T03:40:19.889Z,-0.60
2019-01-11T03:42:48.360Z,-0.60
2019-01-11T03:45:19.633Z,-0.60
2019-01-11T03:47:48.122Z,-0.60
2019-01-11T03:50:18.408Z,-0.60
2019-01-11T03:52:46.976Z,-0.60
2019-01-11T03:55:16.148Z,-0.60
2019-01-11T03:57:44.653Z,-0.50
2019-01-11T04:00:21.156Z,-0.60
2019-01-11T04:02:49.648Z,-0.50
2019-01-11T04:05:18.152Z,-0.50
2019-01-11T04:07:46.705Z,-0.50
2019-01-11T04:10:19.865Z,-0.50
2019-01-11T04:12:48.372Z,-0.60
2019-01-11T04:15:18.917Z,-0.40
2019-01-11T04:17:49.529Z,-0.50
2019-01-11T04:20:19.012Z,-0.50
2019-01-11T04:22:51.942Z,-0.50
2019-01-11T04:25:22.022Z,-0.50
2019-01-11T04:27:51.804Z,-0.60
2019-01-11T04:30:20.611Z,-0.60
2019-01-11T04:32:49.227Z,-0.70
2019-01-11T04:35:17.982Z,-0.70
2019-01-11T04:37:46.618Z,-0.80
2019-01-11T04:40:15.745Z,-0.80
2019-01-11T04:42:44.191Z,-0.80
2019-01-11T04:45:12.959Z,-0.90
2019-01-11T04:47:41.465Z,-0.80
2019-01-11T04:50:12.533Z,-0.90
2019-01-11T04:52:41.465Z,-0.90
2019-01-11T04:55:10.244Z,-1.00
2019-01-11T04:57:38.682Z,-1.00
2019-01-11T05:00:18.631Z,-1.00
2019-01-11T05:02:47.210Z,-1.10
2019-01-11T05:05:16.026Z,-1.00
2019-01-11T05:07:44.642Z,-1.00
2019-01-11T05:10:17.573Z,-1.00
2019-01-11T05:12:46.104Z,-0.90
2019-01-11T05:15:15.070Z,-1.00
2019-01-11T05:17:43.539Z,-0.90
2019-01-11T05:20:16.663Z,-0.90
2019-01-11T05:22:43.963Z,-0.90
2019-01-11T05:25:12.778Z,-0.80
2019-01-11T05:27:41.196Z,-0.80
2019-01-11T05:30:15.493Z,-0.80
2019-01-11T05:32:43.955Z,-0.80
2019-01-11T05:35:12.444Z,-0.80
2019-01-11T05:37:40.959Z,-0.70
2019-01-11T05:40:12.729Z,-0.60
2019-01-11T05:42:41.179Z,-0.60
2019-01-11T05:45:09.655Z,-0.60
2019-01-11T05:47:38.141Z,-0.50
2019-01-11T05:50:09.645Z,-0.50
2019-01-11T05:52:38.103Z,-0.40
2019-01-11T05:55:08.734Z,-0.30
2019-01-11T05:57:38.813Z,-0.30
2019-01-11T06:00:10.209Z,-0.40
2019-01-11T06:02:38.784Z,-0.40
2019-01-11T06:05:09.222Z,-0.30
2019-01-11T06:07:39.239Z,-0.30
2019-01-11T06:10:10.865Z,-0.30
2019-01-11T06:12:39.314Z,-0.40
2019-01-11T06:15:07.806Z,-0.40
2019-01-11T06:17:36.324Z,-0.50
2019-01-11T06:20:07.817Z,-0.50
2019-01-11T06:22:36.261Z,-0.50
2019-01-11T06:25:06.740Z,-0.40
2019-01-11T06:27:35.558Z,-0.30
2019-01-11T06:30:06.994Z,-0.30
2019-01-11T06:32:35.421Z,-0.20
2019-01-11T06:35:04.919Z,-0.10
2019-01-11T06:37:33.367Z,-0.20
2019-01-11T06:40:01.800Z,-0.10
2019-01-11T06:42:30.309Z,0.00
2019-01-11T06:44:59.207Z,0.00
2019-01-11T06:47:27.782Z,0.10
2019-01-11T06:49:56.209Z,0.00
2019-01-11T06:52:24.650Z,0.00
2019-01-11T06:54:53.097Z,0.00
2019-01-11T06:57:21.576Z,0.10
2019-01-11T06:59:50.074Z,0.20
2019-01-11T07:02:18.503Z,0.20
2019-01-11T07:04:46.909Z,0.30
2019-01-11T07:07:15.333Z,0.30
2019-01-11T07:09:43.740Z,0.30
2019-01-11T07:12:12.446Z,0.40
2019-01-11T07:14:40.867Z,0.30
2019-01-11T07:17:09.312Z,0.50
2019-01-11T07:19:37.735Z,0.40
2019-01-11T07:22:06.240Z,0.30
2019-01-11T07:24:34.673Z,0.30
2019-01-11T07:27:03.166Z,0.30
2019-01-11T07:29:31.587Z,0.40
2019-01-11T07:32:00.689Z,0.40
2019-01-11T07:34:29.201Z,0.50
2019-01-11T07:36:57.622Z,0.60
2019-01-11T07:39:29.188Z,0.70
2019-01-11T07:41:57.625Z,0.70
2019-01-11T07:44:26.816Z,0.70
2019-01-11T07:46:55.312Z,0.80
2019-01-11T07:49:23.732Z,0.80
2019-01-11T07:51:52.151Z,0.80
2019-01-11T07:54:20.572Z,0.90
2019-01-11T07:56:49.139Z,1.00
2019-01-11T07:59:18.737Z,0.90
2019-01-11T08:01:47.148Z,1.00
2019-01-11T08:04:15.573Z,1.00
2019-01-11T08:06:43.976Z,1.00
2019-01-11T08:09:12.481Z,1.00
2019-01-11T08:11:40.903Z,1.10
2019-01-11T08:14:09.474Z,1.20
2019-01-11T08:16:38.031Z,1.30
2019-01-11T08:19:06.475Z,1.40
2019-01-11T08:21:34.967Z,1.40
2019-01-11T08:24:03.393Z,1.40
2019-01-11T08:26:31.818Z,1.50
2019-01-11T08:29:00.255Z,1.60
2019-01-11T08:31:34.554Z,1.60
2019-01-11T08:34:00.838Z,1.70
2019-01-11T08:36:29.259Z,1.80
2019-01-11T08:38:57.707Z,1.70
2019-01-11T08:41:26.135Z,1.80
2019-01-11T08:43:54.557Z,1.80
2019-01-11T08:46:22.975Z,1.90
2019-01-11T08:48:51.415Z,2.00
2019-01-11T08:51:19.932Z,1.90
2019-01-11T08:53:48.364Z,2.00
2019-01-11T08:56:16.787Z,2.00
2019-01-11T08:58:46.076Z,2.10
2019-01-11T09:01:14.553Z,2.00
2019-01-11T09:03:42.999Z,2.00
2019-01-11T09:06:11.621Z,1.90
2019-01-11T09:08:40.045Z,1.90
2019-01-11T09:11:08.524Z,2.10
2019-01-11T09:13:36.981Z,2.00
2019-01-11T09:16:05.525Z,2.00
2019-01-11T09:18:35.603Z,2.10
2019-01-11T09:21:09.365Z,2.10
2019-01-11T09:23:34.172Z,2.20
2019-01-11T09:26:03.157Z,2.30
2019-01-11T09:28:31.598Z,2.30
2019-01-11T09:31:00.028Z,2.30
2019-01-11T09:33:28.437Z,2.30
2019-01-11T09:35:58.819Z,2.30
2019-01-11T09:38:27.243Z,2.20
2019-01-11T09:40:55.664Z,2.10
2019-01-11T09:43:24.105Z,1.90
2019-01-11T09:45:52.534Z,1.80
2019-01-11T09:48:20.945Z,1.80
2019-01-11T09:50:49.540Z,1.90
2019-01-11T09:53:17.952Z,1.90
2019-01-11T09:55:46.372Z,1.80
2019-01-11T09:58:14.799Z,1.90
2019-01-11T10:00:43.303Z,1.80
2019-01-11T10:03:11.716Z,1.90
2019-01-11T10:05:40.235Z,1.90
2019-01-11T10:08:11.863Z,1.80
2019-01-11T10:10:40.284Z,1.90
2019-01-11T10:13:08.766Z,1.80
2019-01-11T10:15:37.199Z,1.70
2019-01-11T10:18:05.608Z,1.70
2019-01-11T10:20:34.038Z,1.60
2019-01-11T10:23:02.517Z,1.60
2019-01-11T10:25:30.956Z,1.50
2019-01-11T10:27:59.361Z,1.60
2019-01-11T10:30:27.784Z,1.70
2019-01-11T10:32:56.200Z,1.70
2019-01-11T10:35:24.860Z,1.90
2019-01-11T10:37:53.282Z,2.00
2019-01-11T10:40:21.719Z,2.00
2019-01-11T10:42:50.494Z,2.00
2019-01-11T10:45:20.765Z,1.80
2019-01-11T10:47:50.828Z,1.80
2019-01-11T10:50:19.407Z,1.90
2019-01-11T10:52:47.813Z,2.10
2019-01-11T10:55:17.795Z,2.20
2019-01-11T10:57:46.847Z,2.30
2019-01-11T11:00:21.261Z,2.30
2019-01-11T11:02:52.558Z,2.40
2019-01-11T11:05:21.263Z,2.60
2019-01-11T11:07:49.696Z,2.80
2019-01-11T11:10:18.204Z,2.80
2019-01-11T11:12:48.191Z,3.00
2019-01-11T11:15:17.804Z,3.10
2019-01-11T11:17:46.380Z,3.10
2019-01-11T11:20:16.740Z,3.00
2019-01-11T11:22:45.296Z,3.00
2019-01-11T11:25:16.164Z,3.10
2019-01-11T11:27:44.585Z,3.10
2019-01-11T11:30:17.916Z,3.20
2019-01-11T11:32:47.971Z,3.20
2019-01-11T11:35:16.389Z,3.30
2019-01-11T11:37:44.797Z,3.10
2019-01-11T11:40:13.461Z,3.10
2019-01-11T11:42:42.908Z,3.20
2019-01-11T11:45:11.570Z,3.30
2019-01-11T11:47:39.996Z,3.30
2019-01-11T11:50:10.268Z,3.20
2019-01-11T11:52:38.760Z,3.30
2019-01-11T11:55:08.614Z,3.30
2019-01-11T11:57:37.040Z,3.30
2019-01-11T12:00:14.439Z,3.30
2019-01-11T12:02:42.875Z,3.40
2019-01-11T12:05:11.422Z,3.40
2019-01-11T12:07:39.857Z,3.30
2019-01-11T12:10:11.224Z,3.20
2019-01-11T12:12:39.671Z,3.20
2019-01-11T12:15:09.835Z,3.20
2019-01-11T12:17:38.327Z,3.30
2019-01-11T12:20:15.547Z,3.30
2019-01-11T12:22:43.987Z,3.30
2019-01-11T12:25:12.407Z,3.30
2019-01-11T12:27:42.857Z,3.10
2019-01-11T12:30:14.013Z,3.10
2019-01-11T12:32:42.441Z,3.20
2019-01-11T12:35:11.003Z,3.00
2019-01-11T12:37:39.428Z,3.00
2019-01-11T12:40:13.860Z,3.00
2019-01-11T12:42:42.308Z,2.80
2019-01-11T12:45:13.548Z,2.70
2019-01-11T12:47:41.996Z,2.50
2019-01-11T12:50:18.802Z,2.60
2019-01-11T12:52:47.246Z,2.60
2019-01-11T12:55:15.677Z,2.60
2019-01-11T12:57:44.307Z,2.60
2019-01-11T13:00:15.957Z,2.70
2019-01-11T13:02:44.398Z,2.70
2019-01-11T13:05:15.351Z,2.80
2019-01-11T13:07:43.776Z,2.80
2019-01-11T13:10:14.828Z,2.70
2019-01-11T13:12:43.332Z,2.60
2019-01-11T13:15:17.015Z,2.40
2019-01-11T13:17:45.572Z,2.40
2019-01-11T13:20:16.229Z,2.30
2019-01-11T13:22:44.657Z,2.30
2019-01-11T13:25:13.144Z,2.40
2019-01-11T13:27:41.603Z,2.50
2019-01-11T13:30:12.849Z,2.40
2019-01-11T13:32:41.289Z,2.20
2019-01-11T13:35:10.152Z,2.20
2019-01-11T13:37:38.609Z,2.30
2019-01-11T13:40:10.141Z,2.30
2019-01-11T13:42:38.620Z,2.50
2019-01-11T13:45:09.640Z,2.50
2019-01-11T13:47:38.078Z,2.50
2019-01-11T13:50:12.361Z,2.50
2019-01-11T13:52:40.795Z,2.50
2019-01-11T13:55:10.214Z,2.50
2019-01-11T13:57:40.648Z,2.50
2019-01-11T14:00:12.173Z,2.60
2019-01-11T14:02:40.614Z,2.60
2019-01-11T14:05:11.698Z,2.60
2019-01-11T14:07:40.134Z,2.60
2019-01-11T14:10:08.617Z,2.60
2019-01-11T14:12:37.069Z,2.50
2019-01-11T14:15:08.413Z,2.40
2019-01-11T14:17:36.875Z,2.40
2019-01-11T14:20:08.116Z,2.30
2019-01-11T14:22:36.556Z,2.30
2019-01-11T14:25:07.805Z,2.40
2019-01-11T14:27:36.270Z,2.40
2019-01-11T14:30:14.237Z,2.40
2019-01-11T14:32:42.716Z,2.40
2019-01-11T14:35:11.214Z,2.30
2019-01-11T14:37:39.641Z,2.20
2019-01-11T14:40:11.375Z,2.30
2019-01-11T14:42:39.818Z,2.40
2019-01-11T14:45:11.060Z,2.40
2019-01-11T14:47:39.488Z,2.40
2019-01-11T14:50:13.371Z,2.40
2019-01-11T14:52:41.792Z,2.50
2019-01-11T14:55:10.455Z,2.40
2019-01-11T14:57:38.918Z,2.40
2019-01-11T15:00:10.432Z,2.40
2019-01-11T15:02:38.874Z,2.40
2019-01-11T15:05:09.464Z,2.40
2019-01-11T15:07:38.888Z,2.20
2019-01-11T15:10:10.137Z,2.30
2019-01-11T15:12:39.864Z,2.20
2019-01-11T15:15:09.178Z,2.30
2019-01-11T15:17:37.630Z,2.20
2019-01-11T15:20:09.155Z,2.20
2019-01-11T15:22:37.577Z,2.10
2019-01-11T15:25:07.901Z,2.00
2019-01-11T15:27:36.316Z,2.10
2019-01-11T15:30:10.714Z,1.90
2019-01-11T15:32:40.090Z,1.70
2019-01-11T15:35:09.132Z,1.70
2019-01-11T15:37:37.548Z,1.60
2019-01-11T15:40:09.117Z,1.60
2019-01-11T15:42:37.546Z,1.70
2019-01-11T15:45:07.619Z,1.70
2019-01-11T15:47:36.046Z,1.70
2019-01-11T15:50:09.491Z,1.80
2019-01-11T15:52:37.908Z,1.80
2019-01-11T15:55:09.611Z,1.80
2019-01-11T15:57:41.143Z,1.80
2019-01-11T16:00:15.449Z,1.90
2019-01-11T16:02:43.928Z,1.90
2019-01-11T16:05:12.367Z,2.00
2019-01-11T16:07:40.770Z,2.00
2019-01-11T16:10:12.415Z,1.90
2019-01-11T16:12:40.907Z,1.80
2019-01-11T16:15:14.996Z,1.60
2019-01-11T16:17:43.404Z,1.60
2019-01-11T16:20:12.802Z,1.60
2019-01-11T16:22:41.231Z,1.60
2019-01-11T16:25:12.283Z,1.50
2019-01-11T16:27:41.053Z,1.60
2019-01-11T16:30:14.681Z,1.40
2019-01-11T16:32:43.156Z,1.40
2019-01-11T16:35:11.668Z,1.40
2019-01-11T16:37:40.073Z,1.40
2019-01-11T16:40:11.358Z,1.50
2019-01-11T16:42:48.846Z,1.60
2019-01-11T16:45:17.347Z,1.60
2019-01-11T16:47:45.753Z,1.60
2019-01-11T16:50:19.107Z,1.50
2019-01-11T16:52:47.513Z,1.50
2019-01-11T16:55:16.009Z,1.50
2019-01-11T16:57:44.423Z,1.50
2019-01-11T17:00:17.004Z,1.60
2019-01-11T17:02:45.531Z,1.50
2019-01-11T17:05:14.898Z,1.40
2019-01-11T17:07:43.314Z,1.40
2019-01-11T17:10:12.891Z,1.40
2019-01-11T17:12:41.935Z,1.40
2019-01-11T17:15:14.195Z,1.50
2019-01-11T17:17:42.730Z,1.60
2019-01-11T17:20:14.521Z,1.80
2019-01-11T17:22:42.959Z,1.80
2019-01-11T17:25:11.467Z,1.60
2019-01-11T17:27:39.877Z,1.60
2019-01-11T17:30:11.385Z,1.60
2019-01-11T17:32:39.886Z,1.60
2019-01-11T17:35:14.310Z,1.70
2019-01-11T17:37:42.719Z,1.70
2019-01-11T17:40:12.191Z,1.80
2019-01-11T17:42:40.683Z,1.70
2019-01-11T17:45:11.447Z,1.70
2019-01-11T17:47:57.552Z,1.70
2019-01-11T17:50:25.974Z,1.60
2019-01-11T17:52:59.855Z,1.60
2019-01-11T17:55:24.609Z,1.60
2019-01-11T17:57:53.042Z,1.60
2019-01-11T18:00:21.484Z,1.70
2019-01-11T18:02:49.893Z,1.70
2019-01-11T18:05:18.384Z,1.70
2019-01-11T18:07:46.811Z,1.80
2019-01-11T18:10:15.541Z,1.70
2019-01-11T18:12:45.887Z,1.80
2019-01-11T18:15:16.650Z,1.70
2019-01-11T18:17:45.072Z,1.70
2019-01-11T18:20:24.285Z,1.70
2019-01-11T18:22:52.707Z,1.60
2019-01-11T18:25:21.164Z,1.70
2019-01-11T18:27:51.589Z,1.70
2019-01-11T18:30:20.197Z,1.70
2019-01-11T18:32:48.763Z,1.80
2019-01-11T18:35:17.281Z,1.80
2019-01-11T18:37:45.831Z,1.80
2019-01-11T18:40:19.868Z,1.80
2019-01-11T18:42:48.295Z,1.90
2019-01-11T18:45:16.805Z,1.80
2019-01-11T18:47:45.223Z,1.90
2019-01-11T18:50:19.109Z,1.90
2019-01-11T18:52:47.535Z,2.00
2019-01-11T18:55:16.025Z,1.90
2019-01-11T18:57:44.429Z,2.00
2019-01-11T19:00:20.578Z,2.00
2019-01-11T19:02:50.022Z,2.10
2019-01-11T19:05:19.180Z,2.10
2019-01-11T19:07:49.987Z,2.00
2019-01-11T19:10:20.166Z,2.10
2019-01-11T19:12:48.586Z,2.10
2019-01-11T19:15:22.922Z,2.10
2019-01-11T19:17:51.347Z,2.10
2019-01-11T19:20:24.542Z,2.00
2019-01-11T19:22:53.294Z,2.10
2019-01-11T19:25:21.876Z,2.20
2019-01-11T19:27:50.349Z,2.10
2019-01-11T19:30:21.132Z,2.10
2019-01-11T19:32:49.621Z,2.20
2019-01-11T19:35:18.090Z,2.20
2019-01-11T19:37:46.636Z,2.10
2019-01-11T19:40:16.750Z,2.00
2019-01-11T19:42:45.172Z,2.10
2019-01-11T19:45:15.457Z,2.10
2019-01-11T19:47:43.925Z,2.00
2019-01-11T19:50:17.369Z,2.00
2019-01-11T19:52:45.930Z,2.10
2019-01-11T19:55:14.469Z,2.10
2019-01-11T19:57:42.973Z,2.10
2019-01-11T20:00:25.431Z,2.10
2019-01-11T20:02:54.210Z,2.20
2019-01-11T20:05:28.798Z,2.10
2019-01-11T20:07:57.229Z,2.10
2019-01-11T20:10:30.649Z,2.20
2019-01-11T20:12:59.181Z,2.10
2019-01-11T20:15:27.664Z,2.10
2019-01-11T20:17:56.453Z,2.20
2019-01-11T20:20:25.093Z,2.10
2019-01-11T20:22:53.589Z,2.10
2019-01-11T20:25:23.441Z,2.10
2019-01-11T20:27:52.044Z,2.20
2019-01-11T20:30:25.078Z,2.20
2019-01-11T20:32:53.655Z,2.20
2019-01-11T20:35:22.148Z,2.10
2019-01-11T20:37:51.759Z,2.10
2019-01-11T20:40:20.259Z,2.00
2019-01-11T20:42:48.754Z,2.10
2019-01-11T20:45:19.115Z,2.10
2019-01-11T20:47:47.541Z,2.10
2019-01-11T20:50:17.905Z,2.10
2019-01-11T20:52:46.477Z,2.10
2019-01-11T20:55:15.021Z,2.10
2019-01-11T20:57:43.685Z,2.20
2019-01-11T21:00:29.293Z,2.20
2019-01-11T21:02:57.865Z,2.30
2019-01-11T21:05:26.831Z,2.30
2019-01-11T21:07:56.363Z,2.30
2019-01-11T21:10:24.865Z,2.30
2019-01-11T21:12:53.436Z,2.40
2019-01-11T21:15:23.702Z,2.30
2019-01-11T21:17:52.397Z,2.30
2019-01-11T21:20:21.049Z,2.20
2019-01-11T21:22:49.619Z,2.20
2019-01-11T21:25:19.683Z,2.20
2019-01-11T21:27:48.255Z,2.30
2019-01-11T21:30:25.152Z,2.40
2019-01-11T21:32:53.577Z,2.30
2019-01-11T21:35:22.733Z,2.30
2019-01-11T21:37:51.171Z,2.30
2019-01-11T21:40:20.821Z,2.30
2019-01-11T21:42:49.590Z,2.20
2019-01-11T21:45:18.941Z,2.20
2019-01-11T21:47:48.114Z,2.20
2019-01-11T21:50:18.564Z,2.30
2019-01-11T21:52:47.003Z,2.30
2019-01-11T21:55:15.557Z,2.30
2019-01-11T21:57:44.835Z,2.30
2019-01-11T22:00:22.003Z,2.30
2019-01-11T22:02:50.443Z,2.30
2019-01-11T22:05:19.240Z,2.20
2019-01-11T22:07:47.723Z,2.20
2019-01-11T22:10:17.244Z,2.20
2019-01-11T22:12:47.577Z,2.10
2019-01-11T22:15:18.096Z,2.20
2019-01-11T22:17:46.601Z,2.20
2019-01-11T22:20:16.659Z,2.20
2019-01-11T22:22:45.227Z,2.20
2019-01-11T22:25:15.282Z,2.20
2019-01-11T22:27:43.846Z,2.30
2019-01-11T22:30:14.993Z,2.40
2019-01-11T22:32:43.412Z,2.40
2019-01-11T22:35:11.923Z,2.40
2019-01-11T22:37:40.361Z,2.30
2019-01-11T22:40:14.393Z,2.30
2019-01-11T22:42:42.834Z,2.30
2019-01-11T22:45:13.401Z,2.30
2019-01-11T22:47:42.101Z,2.40
2019-01-11T22:50:15.461Z,2.40
2019-01-11T22:52:43.975Z,2.40
2019-01-11T22:55:17.504Z,2.50
2019-01-11T22:57:45.957Z,2.60
2019-01-11T23:00:36.737Z,2.50
2019-01-11T23:03:08.251Z,2.40
2019-01-11T23:05:38.472Z,2.30
2019-01-11T23:08:07.950Z,2.40
2019-01-11T23:10:54.749Z,2.40
2019-01-11T23:13:23.168Z,2.40
2019-01-11T23:15:51.843Z,2.40
2019-01-11T23:18:20.383Z,2.40
2019-01-11T23:20:48.857Z,2.40
2019-01-11T23:23:17.299Z,2.30
2019-01-11T23:25:45.781Z,2.30
2019-01-11T23:28:14.208Z,2.40
2019-01-11T23:30:42.621Z,2.40
2019-01-11T23:33:11.049Z,2.40
2019-01-11T23:35:39.460Z,2.40
2019-01-11T23:38:07.885Z,2.40
2019-01-11T23:40:36.293Z,2.40
2019-01-11T23:43:06.706Z,2.40
2019-01-11T23:45:35.131Z,2.40
2019-01-11T23:48:03.567Z,2.40
2019-01-11T23:50:32.006Z,2.50
2019-01-11T23:53:00.421Z,2.50
2019-01-11T23:55:28.828Z,2.50
2019-01-11T23:57:57.270Z,2.50
